createdAt,value
2022-10-01T00:02:11.092Z,1.92
2022-10-01T00:04:40.204Z,2.08
2022-10-01T00:07:15.263Z,1.90
2022-10-01T00:09:45.847Z,1.30
2022-10-01T00:12:16.035Z,1.40
2022-10-01T00:14:45.272Z,2.22
2022-10-01T00:17:13.973Z,1.88
2022-10-01T00:19:42.657Z,1.80
2022-10-01T00:22:11.345Z,1.52
2022-10-01T00:24:40.810Z,1.70
2022-10-01T00:27:12.193Z,1.73
2022-10-01T00:29:45.398Z,1.70
2022-10-01T00:32:14.491Z,1.50
2022-10-01T00:34:43.180Z,1.60
2022-10-01T00:37:12.464Z,1.60
2022-10-01T00:39:41.173Z,1.48
2022-10-01T00:42:20.687Z,1.20
2022-10-01T00:44:50.422Z,1.50
2022-10-01T00:47:29.530Z,1.08
2022-10-01T00:50:07.188Z,1.40
2022-10-01T00:52:42.149Z,1.20
2022-10-01T00:55:18.318Z,1.38
2022-10-01T00:57:48.853Z,1.92
2022-10-01T01:00:18.618Z,1.30
2022-10-01T01:02:47.740Z,1.33
2022-10-01T01:05:16.680Z,1.10
2022-10-01T01:07:49.587Z,1.30
2022-10-01T01:10:29.995Z,1.05
2022-10-01T01:13:16.521Z,1.25
2022-10-01T01:15:56.409Z,1.33
2022-10-01T01:18:33.530Z,1.30
2022-10-01T01:21:21.072Z,1.05
2022-10-01T01:24:41.981Z,1.30
2022-10-01T01:27:32.489Z,1.35
2022-10-01T01:30:08.415Z,1.13
2022-10-01T01:32:47.557Z,1.42
2022-10-01T01:35:33.173Z,1.45
2022-10-01T01:38:10.516Z,0.73
2022-10-01T01:40:44.299Z,1.50
2022-10-01T01:43:21.527Z,1.47
2022-10-01T01:45:55.156Z,1.23
2022-10-01T01:48:25.748Z,1.40
2022-10-01T01:51:12.771Z,1.20
2022-10-01T01:53:42.881Z,1.20
2022-10-01T01:56:11.627Z,0.93
2022-10-01T01:58:41.027Z,1.20
2022-10-01T02:01:39.352Z,0.85
2022-10-01T02:04:16.736Z,1.17
2022-10-01T02:07:11.658Z,1.52
2022-10-01T02:09:53.429Z,1.20
2022-10-01T02:12:38.350Z,1.48
2022-10-01T02:15:18.733Z,1.40
2022-10-01T02:17:58.531Z,1.50
2022-10-01T02:20:36.184Z,1.48
2022-10-01T02:23:11.102Z,1.77
2022-10-01T02:25:49.658Z,1.85
2022-10-01T02:28:24.139Z,2.45
2022-10-01T02:30:56.619Z,2.65
2022-10-01T02:33:33.366Z,3.30
2022-10-01T02:36:07.198Z,3.20
2022-10-01T02:38:39.889Z,3.58
2022-10-01T02:41:12.462Z,4.43
2022-10-01T02:43:53.772Z,5.63
2022-10-01T02:46:29.600Z,6.57
2022-10-01T02:49:01.318Z,6.63
2022-10-01T02:51:41.344Z,7.00
2022-10-01T02:54:16.506Z,7.72
2022-10-01T02:57:02.514Z,7.78
2022-10-01T02:59:31.301Z,7.07
2022-10-01T03:02:00.239Z,8.73
2022-10-01T03:04:30.482Z,9.07
2022-10-01T03:07:03.598Z,9.95
2022-10-01T03:09:32.434Z,7.95
2022-10-01T03:12:02.371Z,8.98
2022-10-01T03:14:32.463Z,9.63
2022-10-01T03:17:01.605Z,9.27
2022-10-01T03:19:31.780Z,10.20
2022-10-01T03:22:00.666Z,9.50
2022-10-01T03:24:29.601Z,8.57
2022-10-01T03:26:58.699Z,9.63
2022-10-01T03:29:28.110Z,9.45
2022-10-01T03:31:57.103Z,9.07
2022-10-01T03:34:25.917Z,9.18
2022-10-01T03:36:56.110Z,9.15
2022-10-01T03:39:24.909Z,8.90
2022-10-01T03:41:53.931Z,8.85
2022-10-01T03:44:25.577Z,8.27
2022-10-01T03:46:54.671Z,9.70
2022-10-01T03:49:23.379Z,8.27
2022-10-01T03:51:52.460Z,7.17
2022-10-01T03:54:22.651Z,6.35
2022-10-01T03:56:52.369Z,7.10
2022-10-01T03:59:21.372Z,6.82
2022-10-01T04:01:50.620Z,6.38
2022-10-01T04:04:19.453Z,6.57
2022-10-01T04:06:48.180Z,6.95
2022-10-01T04:09:16.953Z,6.90
2022-10-01T04:11:47.109Z,6.30
2022-10-01T04:14:15.843Z,5.53
2022-10-01T04:16:44.513Z,6.17
2022-10-01T04:19:14.481Z,6.07
2022-10-01T04:21:43.184Z,6.03
2022-10-01T04:24:11.978Z,6.00
2022-10-01T04:26:40.573Z,5.47
2022-10-01T04:29:11.445Z,5.40
2022-10-01T04:31:40.430Z,5.65
2022-10-01T04:34:09.330Z,5.45
2022-10-01T04:36:37.980Z,5.03
2022-10-01T04:39:06.727Z,5.07
2022-10-01T04:41:35.761Z,5.27
2022-10-01T04:44:05.114Z,4.93
2022-10-01T04:46:35.352Z,5.03
2022-10-01T04:49:04.114Z,5.30
2022-10-01T04:51:33.152Z,4.70
2022-10-01T04:54:02.256Z,5.53
2022-10-01T04:56:31.128Z,4.80
2022-10-01T04:58:59.780Z,5.65
2022-10-01T05:01:28.626Z,4.68
2022-10-01T05:03:58.791Z,4.15
2022-10-01T05:06:27.454Z,3.90
2022-10-01T05:08:56.070Z,4.53
2022-10-01T05:11:24.932Z,5.13
2022-10-01T05:13:54.245Z,4.47
2022-10-01T05:16:23.548Z,6.00
2022-10-01T05:18:52.275Z,4.80
2022-10-01T05:21:22.465Z,4.60
2022-10-01T05:23:51.424Z,4.65
2022-10-01T05:26:20.250Z,4.35
2022-10-01T05:28:48.988Z,4.80
2022-10-01T05:31:18.803Z,4.50
2022-10-01T05:33:47.607Z,4.63
2022-10-01T05:36:16.792Z,5.80
2022-10-01T05:38:49.427Z,5.15
2022-10-01T05:41:18.045Z,6.15
2022-10-01T05:43:51.374Z,5.90
2022-10-01T05:46:20.438Z,5.40
2022-10-01T05:48:50.356Z,4.57
2022-10-01T05:51:19.537Z,4.80
2022-10-01T05:53:50.409Z,4.95
2022-10-01T05:56:19.341Z,5.50
2022-10-01T05:58:48.047Z,4.93
2022-10-01T06:01:16.806Z,4.63
2022-10-01T06:03:45.615Z,6.32
2022-10-01T06:06:14.551Z,5.50
2022-10-01T06:08:46.924Z,5.77
2022-10-01T06:11:17.874Z,5.03
2022-10-01T06:13:46.935Z,6.25
2022-10-01T06:16:16.941Z,5.40
2022-10-01T06:18:45.633Z,5.65
2022-10-01T06:21:14.398Z,5.67
2022-10-01T06:23:44.454Z,5.07
2022-10-01T06:26:13.256Z,5.25
2022-10-01T06:28:43.274Z,4.68
2022-10-01T06:31:12.140Z,4.88
2022-10-01T06:33:40.783Z,4.80
2022-10-01T06:36:09.702Z,4.90
2022-10-01T06:38:38.400Z,5.07
2022-10-01T06:41:07.311Z,5.68
2022-10-01T06:43:36.399Z,5.55
2022-10-01T06:46:07.786Z,4.80
2022-10-01T06:48:36.946Z,4.53
2022-10-01T06:51:06.639Z,4.53
2022-10-01T06:53:35.872Z,4.65
2022-10-01T06:56:09.013Z,4.43
2022-10-01T06:58:37.735Z,4.37
2022-10-01T07:01:08.106Z,4.55
2022-10-01T07:03:37.220Z,4.55
2022-10-01T07:06:08.838Z,4.22
2022-10-01T07:08:37.561Z,3.53
2022-10-01T07:11:06.618Z,4.27
2022-10-01T07:13:35.428Z,4.28
2022-10-01T07:16:05.188Z,4.03
2022-10-01T07:18:35.268Z,3.92
2022-10-01T07:21:04.073Z,3.67
2022-10-01T07:23:32.876Z,3.27
2022-10-01T07:26:01.500Z,3.72
2022-10-01T07:28:30.305Z,3.47
2022-10-01T07:31:02.866Z,3.63
2022-10-01T07:33:31.694Z,2.90
2022-10-01T07:36:04.026Z,3.70
2022-10-01T07:38:34.107Z,3.40
2022-10-01T07:41:04.825Z,3.45
2022-10-01T07:43:36.273Z,3.38
2022-10-01T07:46:05.263Z,3.47
2022-10-01T07:48:34.037Z,3.13
2022-10-01T07:51:04.043Z,3.22
2022-10-01T07:53:32.942Z,3.55
2022-10-01T07:56:02.624Z,3.15
2022-10-01T07:58:31.341Z,3.78
2022-10-01T08:01:05.343Z,3.37
2022-10-01T08:03:34.358Z,3.15
2022-10-01T08:06:06.879Z,3.80
2022-10-01T08:08:35.582Z,3.10
2022-10-01T08:11:04.462Z,3.55
2022-10-01T08:13:35.082Z,3.30
2022-10-01T08:16:06.503Z,3.38
2022-10-01T08:18:35.471Z,3.80
2022-10-01T08:21:06.394Z,3.63
2022-10-01T08:23:35.673Z,3.28
2022-10-01T08:26:08.279Z,3.30
2022-10-01T08:28:37.336Z,2.80
2022-10-01T08:31:09.167Z,3.03
2022-10-01T08:33:38.472Z,3.03
2022-10-01T08:36:09.609Z,2.95
2022-10-01T08:38:40.260Z,2.87
2022-10-01T08:41:31.869Z,3.10
2022-10-01T08:44:05.133Z,3.40
2022-10-01T08:46:37.769Z,3.20
2022-10-01T08:49:16.904Z,3.10
2022-10-01T08:51:55.972Z,2.83
2022-10-01T08:54:33.916Z,3.25
2022-10-01T08:57:06.549Z,3.10
2022-10-01T08:59:42.013Z,3.13
2022-10-01T09:02:22.556Z,3.60
2022-10-01T09:05:00.346Z,2.93
2022-10-01T09:08:18.499Z,3.78
2022-10-01T09:10:51.076Z,3.13
2022-10-01T09:13:52.855Z,3.42
2022-10-01T09:16:29.815Z,3.17
2022-10-01T09:19:23.234Z,2.97
2022-10-01T09:21:59.460Z,4.00
2022-10-01T09:24:45.085Z,4.00
2022-10-01T09:27:17.615Z,3.60
2022-10-01T09:29:52.846Z,3.35
2022-10-01T09:32:28.031Z,3.40
2022-10-01T09:35:04.479Z,3.65
2022-10-01T09:37:46.360Z,2.60
2022-10-01T09:40:27.582Z,2.60
2022-10-01T09:42:57.386Z,2.20
2022-10-01T09:45:26.793Z,3.07
2022-10-01T09:48:04.749Z,2.25
2022-10-01T09:50:45.369Z,2.10
2022-10-01T09:53:21.733Z,2.40
2022-10-01T09:55:57.237Z,2.15
2022-10-01T09:58:29.298Z,2.20
2022-10-01T10:01:00.086Z,1.67
2022-10-01T10:03:31.214Z,2.10
2022-10-01T10:06:01.275Z,2.10
2022-10-01T10:08:34.952Z,2.13
2022-10-01T10:11:09.953Z,2.43
2022-10-01T10:13:43.427Z,2.60
2022-10-01T10:16:26.140Z,2.20
2022-10-01T10:19:00.161Z,1.92
2022-10-01T10:21:34.118Z,2.08
2022-10-01T10:24:05.574Z,2.40
2022-10-01T10:26:39.590Z,2.85
2022-10-01T10:29:26.953Z,2.60
2022-10-01T10:31:56.403Z,2.65
2022-10-01T10:34:34.871Z,2.10
2022-10-01T10:37:12.182Z,2.40
2022-10-01T10:39:44.608Z,2.30
2022-10-01T10:42:17.313Z,2.60
2022-10-01T10:44:51.136Z,4.18
2022-10-01T10:47:23.267Z,2.22
2022-10-01T10:49:57.241Z,2.73
2022-10-01T10:52:33.513Z,2.60
2022-10-01T10:55:20.120Z,2.72
2022-10-01T10:57:54.387Z,2.20
2022-10-01T11:00:27.529Z,1.98
2022-10-01T11:03:01.220Z,2.00
2022-10-01T11:05:33.911Z,1.92
2022-10-01T11:08:07.991Z,2.30
2022-10-01T11:10:54.560Z,2.05
2022-10-01T11:13:52.692Z,2.35
2022-10-01T11:16:51.223Z,1.97
2022-10-01T11:19:48.413Z,1.80
2022-10-01T11:22:44.125Z,2.03
2022-10-01T11:25:30.567Z,2.00
2022-10-01T11:28:19.989Z,1.80
2022-10-01T11:31:03.220Z,2.20
2022-10-01T11:33:46.487Z,1.60
2022-10-01T11:36:26.620Z,1.58
2022-10-01T11:39:01.515Z,1.70
2022-10-01T11:41:38.401Z,1.73
2022-10-01T11:44:15.860Z,1.67
2022-10-01T11:46:58.648Z,1.60
2022-10-01T11:49:50.224Z,1.45
2022-10-01T11:52:38.977Z,1.00
2022-10-01T11:55:38.898Z,1.38
2022-10-01T11:58:35.900Z,1.40
2022-10-01T12:01:12.905Z,1.20
2022-10-01T12:04:01.934Z,1.50
2022-10-01T12:06:37.187Z,1.45
2022-10-01T12:09:15.348Z,1.02
2022-10-01T12:11:52.868Z,1.20
2022-10-01T12:14:31.487Z,1.20
2022-10-01T12:17:12.178Z,1.20
2022-10-01T12:19:48.033Z,1.00
2022-10-01T12:22:25.734Z,1.75
2022-10-01T12:24:55.046Z,0.83
2022-10-01T12:27:41.052Z,1.20
2022-10-01T12:30:15.390Z,1.10
2022-10-01T12:33:13.856Z,0.95
2022-10-01T12:36:10.717Z,1.05
2022-10-01T12:39:02.627Z,1.00
2022-10-01T12:41:46.624Z,0.80
2022-10-01T12:44:38.534Z,1.13
2022-10-01T12:47:27.492Z,0.75
2022-10-01T12:50:11.167Z,0.82
2022-10-01T12:52:58.496Z,1.00
2022-10-01T12:55:54.923Z,0.90
2022-10-01T12:58:56.258Z,1.33
2022-10-01T13:01:45.157Z,1.30
2022-10-01T13:04:35.389Z,1.25
2022-10-01T13:07:32.971Z,0.70
2022-10-01T13:10:20.090Z,0.95
2022-10-01T13:13:06.450Z,1.27
2022-10-01T13:15:40.529Z,1.05
2022-10-01T13:18:27.215Z,1.00
2022-10-01T13:21:07.155Z,0.80
2022-10-01T13:23:48.191Z,0.50
2022-10-01T13:26:26.848Z,1.10
2022-10-01T13:29:22.711Z,1.00
2022-10-01T13:31:59.364Z,0.80
2022-10-01T13:34:40.827Z,1.07
2022-10-01T13:37:16.061Z,1.17
2022-10-01T13:39:45.601Z,1.10
2022-10-01T13:42:44.902Z,1.00
2022-10-01T13:45:34.314Z,1.15
2022-10-01T13:48:13.533Z,0.90
2022-10-01T13:50:55.402Z,0.90
2022-10-01T13:53:29.797Z,1.40
2022-10-01T13:55:59.012Z,0.88
2022-10-01T13:58:39.838Z,1.00
2022-10-01T14:01:30.538Z,1.20
2022-10-01T14:04:09.647Z,1.17
2022-10-01T14:06:49.896Z,1.60
2022-10-01T14:09:24.387Z,2.08
2022-10-01T14:12:16.123Z,2.00
2022-10-01T14:15:13.800Z,2.10
2022-10-01T14:17:45.333Z,2.50
2022-10-01T14:20:20.251Z,2.60
2022-10-01T14:23:10.166Z,2.20
2022-10-01T14:25:53.612Z,1.85
2022-10-01T14:28:42.072Z,2.53
2022-10-01T14:31:24.324Z,1.70
2022-10-01T14:34:26.173Z,1.88
2022-10-01T14:36:57.041Z,2.28
2022-10-01T14:39:27.869Z,3.20
2022-10-01T14:41:59.077Z,2.77
2022-10-01T14:44:30.382Z,3.30
2022-10-01T14:47:01.895Z,3.80
2022-10-01T14:49:33.360Z,3.15
2022-10-01T14:52:07.340Z,3.53
2022-10-01T14:54:47.001Z,3.47
2022-10-01T14:57:29.075Z,3.50
2022-10-01T15:00:01.554Z,3.33
2022-10-01T15:02:33.878Z,2.58
2022-10-01T15:05:02.700Z,3.25
2022-10-01T15:07:37.521Z,2.73
2022-10-01T15:10:10.246Z,2.55
2022-10-01T15:12:42.468Z,2.85
2022-10-01T15:15:21.730Z,2.35
2022-10-01T15:17:53.279Z,3.20
2022-10-01T15:20:21.947Z,2.97
2022-10-01T15:22:58.993Z,5.57
2022-10-01T15:25:33.089Z,6.78
2022-10-01T15:28:02.263Z,3.80
2022-10-01T15:30:33.852Z,3.35
2022-10-01T15:33:04.828Z,3.67
2022-10-01T15:35:35.736Z,3.47
2022-10-01T15:38:04.916Z,3.70
2022-10-01T15:40:35.667Z,3.72
2022-10-01T15:43:27.026Z,4.75
2022-10-01T15:46:18.103Z,7.17
2022-10-01T15:48:49.099Z,6.22
2022-10-01T15:51:25.756Z,3.83
2022-10-01T15:54:03.042Z,5.82
2022-10-01T15:56:32.289Z,3.45
2022-10-01T15:59:17.553Z,4.73
2022-10-01T16:01:46.515Z,4.75
2022-10-01T16:04:16.904Z,5.93
2022-10-01T16:06:49.362Z,4.45
2022-10-01T16:09:21.653Z,4.60
2022-10-01T16:11:56.808Z,5.27
2022-10-01T16:14:36.671Z,6.28
2022-10-01T16:17:32.842Z,5.40
2022-10-01T16:20:34.401Z,6.00
2022-10-01T16:23:47.964Z,5.60
2022-10-01T16:26:39.795Z,60.40
2022-10-01T16:29:24.883Z,45.80
2022-10-01T16:31:54.354Z,16.02
2022-10-01T16:34:23.397Z,6.63
2022-10-01T16:36:59.082Z,7.75
2022-10-01T16:39:28.158Z,5.50
2022-10-01T16:42:22.305Z,10.57
2022-10-01T16:44:46.560Z,12.00
2022-10-01T16:47:15.621Z,7.55
2022-10-01T16:49:44.868Z,6.63
2022-10-01T16:52:22.540Z,10.53
2022-10-01T16:54:52.252Z,7.70
2022-10-01T16:57:21.340Z,7.88
2022-10-01T16:59:50.249Z,9.10
2022-10-01T17:02:19.565Z,6.55
2022-10-01T17:04:48.931Z,5.60
2022-10-01T17:07:19.719Z,5.43
2022-10-01T17:09:51.776Z,5.70
2022-10-01T17:12:21.093Z,5.97
2022-10-01T17:14:51.400Z,6.43
2022-10-01T17:17:20.723Z,7.77
2022-10-01T17:19:49.958Z,6.22
2022-10-01T17:22:21.044Z,5.88
2022-10-01T17:24:50.764Z,6.60
2022-10-01T17:27:22.919Z,7.35
2022-10-01T17:29:52.401Z,7.43
2022-10-01T17:32:21.751Z,6.75
2022-10-01T17:34:53.867Z,7.85
2022-10-01T17:37:24.753Z,7.80
2022-10-01T17:39:54.126Z,8.15
2022-10-01T17:42:23.541Z,7.67
2022-10-01T17:44:52.697Z,6.93
2022-10-01T17:47:21.903Z,8.02
2022-10-01T17:49:51.168Z,8.30
2022-10-01T17:52:22.559Z,8.85
2022-10-01T17:54:53.328Z,7.47
2022-10-01T17:57:22.815Z,7.57
2022-10-01T17:59:52.405Z,8.32
2022-10-01T18:02:41.010Z,8.35
2022-10-01T18:05:14.642Z,8.43
2022-10-01T18:07:44.488Z,7.13
2022-10-01T18:10:15.692Z,8.15
2022-10-01T18:12:45.008Z,8.95
2022-10-01T18:15:14.528Z,9.60
2022-10-01T18:17:51.252Z,10.52
2022-10-01T18:20:22.240Z,10.93
2022-10-01T18:22:52.351Z,8.90
2022-10-01T18:25:22.936Z,8.95
2022-10-01T18:27:52.076Z,9.55
2022-10-01T18:30:21.422Z,9.75
2022-10-01T18:32:57.203Z,10.13
2022-10-01T18:35:33.114Z,10.77
2022-10-01T18:38:12.598Z,9.95
2022-10-01T18:40:45.475Z,8.68
2022-10-01T18:43:21.940Z,8.02
2022-10-01T18:46:12.749Z,9.23
2022-10-01T18:49:15.949Z,10.13
2022-10-01T18:52:04.162Z,8.85
2022-10-01T18:54:55.455Z,8.48
2022-10-01T18:57:49.346Z,8.30
2022-10-01T19:00:23.560Z,9.23
2022-10-01T19:03:25.731Z,7.35
2022-10-01T19:06:34.035Z,8.07
2022-10-01T19:09:27.047Z,6.75
2022-10-01T19:12:12.921Z,6.15
2022-10-01T19:15:01.290Z,5.80
2022-10-01T19:17:56.311Z,8.65
2022-10-01T19:20:46.525Z,6.07
2022-10-01T19:23:41.359Z,6.68
2022-10-01T19:26:23.454Z,6.20
2022-10-01T19:29:12.826Z,5.97
2022-10-01T19:31:54.202Z,5.90
2022-10-01T19:34:32.744Z,5.43
2022-10-01T19:37:12.004Z,4.75
2022-10-01T19:39:45.384Z,4.88
2022-10-01T19:42:22.466Z,4.70
2022-10-01T19:45:01.432Z,5.28
2022-10-01T19:47:50.834Z,4.20
2022-10-01T19:50:25.515Z,4.82
2022-10-01T19:52:59.668Z,5.22
2022-10-01T19:55:38.760Z,5.13
2022-10-01T19:58:19.131Z,4.75
2022-10-01T20:00:55.698Z,4.25
2022-10-01T20:03:37.710Z,4.13
2022-10-01T20:06:19.311Z,4.63
2022-10-01T20:08:53.783Z,4.40
2022-10-01T20:11:31.374Z,4.75
2022-10-01T20:14:37.166Z,5.22
2022-10-01T20:17:20.165Z,5.20
2022-10-01T20:20:01.074Z,5.45
2022-10-01T20:22:42.215Z,4.87
2022-10-01T20:25:24.176Z,4.70
2022-10-01T20:28:02.748Z,5.10
2022-10-01T20:30:44.954Z,4.57
2022-10-01T20:33:27.237Z,4.63
2022-10-01T20:36:13.315Z,4.57
2022-10-01T20:38:50.748Z,4.53
2022-10-01T20:41:24.264Z,5.18
2022-10-01T20:43:59.892Z,4.75
2022-10-01T20:46:38.412Z,4.93
2022-10-01T20:49:20.795Z,5.23
2022-10-01T20:52:02.115Z,5.18
2022-10-01T20:54:37.874Z,4.45
2022-10-01T20:57:20.311Z,4.78
2022-10-01T20:59:55.029Z,5.70
2022-10-01T21:02:35.642Z,4.77
2022-10-01T21:05:14.863Z,5.43
2022-10-01T21:07:56.881Z,5.13
2022-10-01T21:10:34.840Z,4.78
2022-10-01T21:13:14.089Z,4.75
2022-10-01T21:15:56.094Z,4.73
2022-10-01T21:18:41.184Z,4.90
2022-10-01T21:21:23.746Z,4.97
2022-10-01T21:24:11.823Z,4.93
2022-10-01T21:27:00.972Z,5.55
2022-10-01T21:30:05.412Z,4.73
2022-10-01T21:33:04.428Z,4.82
2022-10-01T21:35:45.361Z,4.60
2022-10-01T21:38:33.177Z,4.63
2022-10-01T21:41:25.125Z,4.78
2022-10-01T21:44:39.663Z,4.30
2022-10-01T21:47:18.451Z,4.47
2022-10-01T21:50:02.318Z,4.70
2022-10-01T21:52:45.726Z,4.80
2022-10-01T21:55:30.179Z,4.85
2022-10-01T21:58:18.571Z,5.30
2022-10-01T22:01:01.473Z,6.43
2022-10-01T22:03:39.534Z,6.18
2022-10-01T22:06:17.521Z,6.68
2022-10-01T22:09:08.959Z,6.82
2022-10-01T22:11:42.396Z,7.63
2022-10-01T22:14:19.226Z,7.15
2022-10-01T22:16:55.552Z,7.80
2022-10-01T22:19:30.168Z,7.63
2022-10-01T22:22:05.947Z,7.97
2022-10-01T22:24:43.640Z,7.80
2022-10-01T22:27:21.367Z,7.28
2022-10-01T22:29:58.475Z,6.72
2022-10-01T22:32:40.413Z,6.80
2022-10-01T22:35:18.310Z,7.32
2022-10-01T22:37:55.001Z,6.17
2022-10-01T22:40:31.193Z,6.95
2022-10-01T22:43:07.866Z,6.60
2022-10-01T22:45:55.088Z,6.60
2022-10-01T22:48:49.928Z,5.93
2022-10-01T22:51:44.233Z,6.87
2022-10-01T22:54:32.319Z,7.20
2022-10-01T22:57:20.662Z,6.97
2022-10-01T23:00:02.715Z,6.85
2022-10-01T23:02:43.886Z,7.20
2022-10-01T23:05:30.533Z,7.37
2022-10-01T23:08:08.692Z,7.90
2022-10-01T23:10:53.009Z,8.07
2022-10-01T23:13:40.093Z,8.50
2022-10-01T23:16:21.198Z,8.35
2022-10-01T23:19:08.087Z,8.77
2022-10-01T23:21:44.991Z,8.07
2022-10-01T23:24:37.236Z,9.52
2022-10-01T23:27:21.687Z,10.98
2022-10-01T23:30:09.696Z,10.88
2022-10-01T23:33:10.579Z,16.47
2022-10-01T23:35:54.558Z,17.08
2022-10-01T23:39:03.036Z,14.75
2022-10-01T23:41:40.989Z,15.32
2022-10-01T23:44:19.111Z,14.73
2022-10-01T23:46:53.306Z,13.33
2022-10-01T23:49:30.635Z,13.70
2022-10-01T23:52:12.760Z,13.40
2022-10-01T23:54:49.887Z,14.40
2022-10-01T23:57:25.929Z,13.48
